sensor_id;sensor_type;location;lat;lon;timestamp;temperature;humidity
20829;DHT22;10575;50.124;8.582;2024-02-26T00:02:16;7.30;99.90
20829;DHT22;10575;50.124;8.582;2024-02-26T00:04:42;7.30;99.90
20829;DHT22;10575;50.124;8.582;2024-02-26T00:07:07;7.30;99.90
20829;DHT22;10575;50.124;8.582;2024-02-26T00:09:33;7.30;99.90
20829;DHT22;10575;50.124;8.582;2024-02-26T00:12:02;7.30;99.90
20829;DHT22;10575;50.124;8.582;2024-02-26T00:14:29;7.40;99.90
20829;DHT22;10575;50.124;8.582;2024-02-26T00:16:55;7.40;99.90
20829;DHT22;10575;50.124;8.582;2024-02-26T00:19:20;7.40;99.90
20829;DHT22;10575;50.124;8.582;2024-02-26T00:21:46;7.40;99.90
20829;DHT22;10575;50.124;8.582;2024-02-26T00:24:11;7.40;99.90
20829;DHT22;10575;50.124;8.582;2024-02-26T00:26:37;7.40;99.90
20829;DHT22;10575;50.124;8.582;2024-02-26T00:29:02;7.40;99.90
20829;DHT22;10575;50.124;8.582;2024-02-26T00:31:28;7.40;99.90
20829;DHT22;10575;50.124;8.582;2024-02-26T00:33:53;7.40;99.90
20829;DHT22;10575;50.124;8.582;2024-02-26T00:36:19;7.40;99.90
20829;DHT22;10575;50.124;8.582;2024-02-26T00:38:45;7.40;99.90
20829;DHT22;10575;50.124;8.582;2024-02-26T00:41:20;7.50;99.90
20829;DHT22;10575;50.124;8.582;2024-02-26T00:43:46;7.40;99.90
20829;DHT22;10575;50.124;8.582;2024-02-26T00:46:11;7.40;99.90
20829;DHT22;10575;50.124;8.582;2024-02-26T00:48:37;7.40;99.90
20829;DHT22;10575;50.124;8.582;2024-02-26T00:51:03;7.40;99.90
20829;DHT22;10575;50.124;8.582;2024-02-26T00:53:33;7.40;99.90
20829;DHT22;10575;50.124;8.582;2024-02-26T00:55:58;7.50;99.90
20829;DHT22;10575;50.124;8.582;2024-02-26T00:58:24;7.40;99.90
20829;DHT22;10575;50.124;8.582;2024-02-26T01:00:50;7.50;99.90
20829;DHT22;10575;50.124;8.582;2024-02-26T01:03:16;7.60;99.90
20829;DHT22;10575;50.124;8.582;2024-02-26T01:05:42;7.60;99.90
20829;DHT22;10575;50.124;8.582;2024-02-26T01:08:07;7.60;99.90
20829;DHT22;10575;50.124;8.582;2024-02-26T01:10:33;7.70;99.90
20829;DHT22;10575;50.124;8.582;2024-02-26T01:12:59;7.70;99.90
20829;DHT22;10575;50.124;8.582;2024-02-26T01:15:25;7.70;99.90
20829;DHT22;10575;50.124;8.582;2024-02-26T01:17:50;7.70;99.90
20829;DHT22;10575;50.124;8.582;2024-02-26T01:20:17;7.70;99.90
20829;DHT22;10575;50.124;8.582;2024-02-26T01:22:43;7.70;99.90
20829;DHT22;10575;50.124;8.582;2024-02-26T01:25:08;7.60;99.90
20829;DHT22;10575;50.124;8.582;2024-02-26T01:27:35;7.50;99.90
20829;DHT22;10575;50.124;8.582;2024-02-26T01:30:02;7.50;99.90
20829;DHT22;10575;50.124;8.582;2024-02-26T01:32:29;7.50;99.90
20829;DHT22;10575;50.124;8.582;2024-02-26T01:34:55;7.50;99.90
20829;DHT22;10575;50.124;8.582;2024-02-26T01:37:21;7.50;99.90
20829;DHT22;10575;50.124;8.582;2024-02-26T01:39:46;7.50;99.90
20829;DHT22;10575;50.124;8.582;2024-02-26T01:42:12;7.40;99.90
20829;DHT22;10575;50.124;8.582;2024-02-26T01:44:37;7.50;99.90
20829;DHT22;10575;50.124;8.582;2024-02-26T01:47:05;7.60;99.90
20829;DHT22;10575;50.124;8.582;2024-02-26T01:49:31;7.70;99.90
20829;DHT22;10575;50.124;8.582;2024-02-26T01:51:58;7.60;99.90
20829;DHT22;10575;50.124;8.582;2024-02-26T01:54:24;7.60;99.90
20829;DHT22;10575;50.124;8.582;2024-02-26T01:56:50;7.50;99.90
20829;DHT22;10575;50.124;8.582;2024-02-26T01:59:16;7.50;99.90
20829;DHT22;10575;50.124;8.582;2024-02-26T02:01:44;7.50;99.90
20829;DHT22;10575;50.124;8.582;2024-02-26T02:04:13;7.50;99.90
20829;DHT22;10575;50.124;8.582;2024-02-26T02:06:40;7.50;99.90
20829;DHT22;10575;50.124;8.582;2024-02-26T02:09:08;7.60;99.90
20829;DHT22;10575;50.124;8.582;2024-02-26T02:11:33;7.50;99.90
20829;DHT22;10575;50.124;8.582;2024-02-26T02:13:59;7.50;99.90
20829;DHT22;10575;50.124;8.582;2024-02-26T02:16:27;7.60;99.90
20829;DHT22;10575;50.124;8.582;2024-02-26T02:18:52;7.60;99.90
20829;DHT22;10575;50.124;8.582;2024-02-26T02:21:18;7.60;99.90
20829;DHT22;10575;50.124;8.582;2024-02-26T02:23:43;7.70;99.90
20829;DHT22;10575;50.124;8.582;2024-02-26T02:26:12;7.70;99.90
20829;DHT22;10575;50.124;8.582;2024-02-26T02:28:39;7.60;99.90
20829;DHT22;10575;50.124;8.582;2024-02-26T02:31:05;7.60;99.90
20829;DHT22;10575;50.124;8.582;2024-02-26T02:33:31;7.50;99.90
20829;DHT22;10575;50.124;8.582;2024-02-26T02:35:57;7.40;99.90
20829;DHT22;10575;50.124;8.582;2024-02-26T02:38:23;7.40;99.90
20829;DHT22;10575;50.124;8.582;2024-02-26T02:40:53;7.40;99.90
20829;DHT22;10575;50.124;8.582;2024-02-26T02:43:19;7.30;99.90
20829;DHT22;10575;50.124;8.582;2024-02-26T02:45:44;7.30;99.90
20829;DHT22;10575;50.124;8.582;2024-02-26T02:48:13;7.20;99.90
20829;DHT22;10575;50.124;8.582;2024-02-26T02:50:39;7.20;99.90
20829;DHT22;10575;50.124;8.582;2024-02-26T02:53:04;7.20;99.90
20829;DHT22;10575;50.124;8.582;2024-02-26T02:55:30;7.20;99.90
20829;DHT22;10575;50.124;8.582;2024-02-26T02:57:55;7.20;99.90
20829;DHT22;10575;50.124;8.582;2024-02-26T03:00:21;7.20;99.90
20829;DHT22;10575;50.124;8.582;2024-02-26T03:02:51;7.10;99.90
20829;DHT22;10575;50.124;8.582;2024-02-26T03:05:17;7.10;99.90
20829;DHT22;10575;50.124;8.582;2024-02-26T03:07:42;7.10;99.90
20829;DHT22;10575;50.124;8.582;2024-02-26T03:10:08;7.10;99.90
20829;DHT22;10575;50.124;8.582;2024-02-26T03:12:34;7.20;99.90
20829;DHT22;10575;50.124;8.582;2024-02-26T03:15:00;7.20;99.90
20829;DHT22;10575;50.124;8.582;2024-02-26T03:17:28;7.20;99.90
20829;DHT22;10575;50.124;8.582;2024-02-26T03:19:54;7.20;99.90
20829;DHT22;10575;50.124;8.582;2024-02-26T03:22:20;7.20;99.90
20829;DHT22;10575;50.124;8.582;2024-02-26T03:24:46;7.30;99.90
20829;DHT22;10575;50.124;8.582;2024-02-26T03:27:11;7.30;99.90
20829;DHT22;10575;50.124;8.582;2024-02-26T03:29:38;7.30;99.90
20829;DHT22;10575;50.124;8.582;2024-02-26T03:32:04;7.40;99.90
20829;DHT22;10575;50.124;8.582;2024-02-26T03:34:30;7.40;99.90
20829;DHT22;10575;50.124;8.582;2024-02-26T03:36:56;7.50;99.90
20829;DHT22;10575;50.124;8.582;2024-02-26T03:39:22;7.60;99.90
20829;DHT22;10575;50.124;8.582;2024-02-26T03:41:48;7.70;99.90
20829;DHT22;10575;50.124;8.582;2024-02-26T03:44:13;7.70;99.90
20829;DHT22;10575;50.124;8.582;2024-02-26T03:46:39;7.50;99.90
20829;DHT22;10575;50.124;8.582;2024-02-26T03:49:04;7.50;99.90
20829;DHT22;10575;50.124;8.582;2024-02-26T03:51:30;7.60;99.90
20829;DHT22;10575;50.124;8.582;2024-02-26T03:53:57;7.70;99.90
20829;DHT22;10575;50.124;8.582;2024-02-26T03:56:23;7.80;99.90
20829;DHT22;10575;50.124;8.582;2024-02-26T03:58:49;7.90;99.90
20829;DHT22;10575;50.124;8.582;2024-02-26T04:01:15;7.90;99.90
20829;DHT22;10575;50.124;8.582;2024-02-26T04:03:41;7.80;99.90
20829;DHT22;10575;50.124;8.582;2024-02-26T04:06:08;7.80;99.90
20829;DHT22;10575;50.124;8.582;2024-02-26T04:08:36;7.80;99.90
20829;DHT22;10575;50.124;8.582;2024-02-26T04:11:04;7.80;99.90
20829;DHT22;10575;50.124;8.582;2024-02-26T04:13:33;7.80;99.90
20829;DHT22;10575;50.124;8.582;2024-02-26T04:15:59;7.90;99.90
20829;DHT22;10575;50.124;8.582;2024-02-26T04:18:27;7.80;99.90
20829;DHT22;10575;50.124;8.582;2024-02-26T04:20:52;7.80;99.90
20829;DHT22;10575;50.124;8.582;2024-02-26T04:23:18;7.70;99.90
20829;DHT22;10575;50.124;8.582;2024-02-26T04:25:43;7.80;99.90
20829;DHT22;10575;50.124;8.582;2024-02-26T04:28:09;7.70;99.90
20829;DHT22;10575;50.124;8.582;2024-02-26T04:30:34;7.60;99.90
20829;DHT22;10575;50.124;8.582;2024-02-26T04:33:00;7.60;99.90
20829;DHT22;10575;50.124;8.582;2024-02-26T04:35:25;7.50;99.90
20829;DHT22;10575;50.124;8.582;2024-02-26T04:37:51;7.60;99.90
20829;DHT22;10575;50.124;8.582;2024-02-26T04:40:16;7.70;99.90
20829;DHT22;10575;50.124;8.582;2024-02-26T04:42:42;7.70;99.90
20829;DHT22;10575;50.124;8.582;2024-02-26T04:45:08;7.80;99.90
20829;DHT22;10575;50.124;8.582;2024-02-26T04:47:34;7.80;99.90
20829;DHT22;10575;50.124;8.582;2024-02-26T04:49:59;7.80;99.90
20829;DHT22;10575;50.124;8.582;2024-02-26T04:52:25;7.60;99.90
20829;DHT22;10575;50.124;8.582;2024-02-26T04:54:51;7.60;99.90
20829;DHT22;10575;50.124;8.582;2024-02-26T04:57:16;7.60;99.90
20829;DHT22;10575;50.124;8.582;2024-02-26T04:59:44;7.60;99.90
20829;DHT22;10575;50.124;8.582;2024-02-26T05:02:10;7.60;99.90
20829;DHT22;10575;50.124;8.582;2024-02-26T05:04:35;7.70;99.90
20829;DHT22;10575;50.124;8.582;2024-02-26T05:07:01;7.70;99.90
20829;DHT22;10575;50.124;8.582;2024-02-26T05:09:26;7.70;99.90
20829;DHT22;10575;50.124;8.582;2024-02-26T05:11:52;7.70;99.90
20829;DHT22;10575;50.124;8.582;2024-02-26T05:14:18;7.50;99.90
20829;DHT22;10575;50.124;8.582;2024-02-26T05:16:43;7.40;99.90
20829;DHT22;10575;50.124;8.582;2024-02-26T05:19:09;7.30;99.90
20829;DHT22;10575;50.124;8.582;2024-02-26T05:21:34;7.30;99.90
20829;DHT22;10575;50.124;8.582;2024-02-26T05:24:00;7.40;99.90
20829;DHT22;10575;50.124;8.582;2024-02-26T05:26:25;7.30;99.90
20829;DHT22;10575;50.124;8.582;2024-02-26T05:28:52;7.20;99.90
20829;DHT22;10575;50.124;8.582;2024-02-26T05:31:17;7.30;99.90
20829;DHT22;10575;50.124;8.582;2024-02-26T05:33:44;7.20;99.90
20829;DHT22;10575;50.124;8.582;2024-02-26T05:36:10;7.30;99.90
20829;DHT22;10575;50.124;8.582;2024-02-26T05:38:35;7.40;99.90
20829;DHT22;10575;50.124;8.582;2024-02-26T05:41:01;7.40;99.90
20829;DHT22;10575;50.124;8.582;2024-02-26T05:43:27;7.50;99.90
20829;DHT22;10575;50.124;8.582;2024-02-26T05:45:54;7.40;99.90
20829;DHT22;10575;50.124;8.582;2024-02-26T05:48:20;7.30;99.90
20829;DHT22;10575;50.124;8.582;2024-02-26T05:50:46;7.20;99.90
20829;DHT22;10575;50.124;8.582;2024-02-26T05:53:12;7.10;99.90
20829;DHT22;10575;50.124;8.582;2024-02-26T05:55:37;7.10;99.90
20829;DHT22;10575;50.124;8.582;2024-02-26T05:58:06;7.00;99.90
20829;DHT22;10575;50.124;8.582;2024-02-26T06:00:31;6.90;99.90
20829;DHT22;10575;50.124;8.582;2024-02-26T06:02:57;6.80;99.90
20829;DHT22;10575;50.124;8.582;2024-02-26T06:05:23;6.90;99.90
20829;DHT22;10575;50.124;8.582;2024-02-26T06:07:53;6.80;99.90
20829;DHT22;10575;50.124;8.582;2024-02-26T06:10:20;6.80;99.90
20829;DHT22;10575;50.124;8.582;2024-02-26T06:12:47;6.80;99.90
20829;DHT22;10575;50.124;8.582;2024-02-26T06:15:12;6.70;99.90
20829;DHT22;10575;50.124;8.582;2024-02-26T06:17:38;6.80;99.90
20829;DHT22;10575;50.124;8.582;2024-02-26T06:20:03;6.80;99.90
20829;DHT22;10575;50.124;8.582;2024-02-26T06:22:31;6.80;99.90
20829;DHT22;10575;50.124;8.582;2024-02-26T06:24:57;6.80;99.90
20829;DHT22;10575;50.124;8.582;2024-02-26T06:27:23;6.90;99.90
20829;DHT22;10575;50.124;8.582;2024-02-26T06:29:49;6.90;99.90
20829;DHT22;10575;50.124;8.582;2024-02-26T06:32:15;6.90;99.90
20829;DHT22;10575;50.124;8.582;2024-02-26T06:34:41;6.90;99.90
20829;DHT22;10575;50.124;8.582;2024-02-26T06:37:07;6.90;99.90
20829;DHT22;10575;50.124;8.582;2024-02-26T06:39:33;6.90;99.90
20829;DHT22;10575;50.124;8.582;2024-02-26T06:41:59;6.90;99.90
20829;DHT22;10575;50.124;8.582;2024-02-26T06:44:27;6.80;99.90
20829;DHT22;10575;50.124;8.582;2024-02-26T06:47:00;6.70;99.90
20829;DHT22;10575;50.124;8.582;2024-02-26T06:49:27;6.70;99.90
20829;DHT22;10575;50.124;8.582;2024-02-26T06:51:52;6.60;99.90
20829;DHT22;10575;50.124;8.582;2024-02-26T06:54:18;6.60;99.90
20829;DHT22;10575;50.124;8.582;2024-02-26T06:56:44;6.60;99.90
20829;DHT22;10575;50.124;8.582;2024-02-26T06:59:09;6.60;99.90
20829;DHT22;10575;50.124;8.582;2024-02-26T07:01:35;6.60;99.90
20829;DHT22;10575;50.124;8.582;2024-02-26T07:04:00;6.60;99.90
20829;DHT22;10575;50.124;8.582;2024-02-26T07:06:27;6.60;99.90
20829;DHT22;10575;50.124;8.582;2024-02-26T07:08:53;6.70;99.90
20829;DHT22;10575;50.124;8.582;2024-02-26T07:11:22;6.60;99.90
20829;DHT22;10575;50.124;8.582;2024-02-26T07:13:47;6.70;99.90
20829;DHT22;10575;50.124;8.582;2024-02-26T07:16:15;6.80;99.90
20829;DHT22;10575;50.124;8.582;2024-02-26T07:18:40;6.80;99.90
20829;DHT22;10575;50.124;8.582;2024-02-26T07:21:06;6.80;99.90
20829;DHT22;10575;50.124;8.582;2024-02-26T07:23:32;6.90;99.90
20829;DHT22;10575;50.124;8.582;2024-02-26T07:25:57;6.90;99.90
20829;DHT22;10575;50.124;8.582;2024-02-26T07:28:24;6.90;99.90
20829;DHT22;10575;50.124;8.582;2024-02-26T07:30:50;6.90;99.90
20829;DHT22;10575;50.124;8.582;2024-02-26T07:33:15;6.90;99.90
20829;DHT22;10575;50.124;8.582;2024-02-26T07:35:41;7.00;99.90
20829;DHT22;10575;50.124;8.582;2024-02-26T07:38:06;7.00;99.90
20829;DHT22;10575;50.124;8.582;2024-02-26T07:40:32;7.10;99.90
20829;DHT22;10575;50.124;8.582;2024-02-26T07:42:58;7.20;99.90
20829;DHT22;10575;50.124;8.582;2024-02-26T07:45:26;7.20;99.90
20829;DHT22;10575;50.124;8.582;2024-02-26T07:47:51;7.10;99.90
20829;DHT22;10575;50.124;8.582;2024-02-26T07:50:17;7.00;99.90
20829;DHT22;10575;50.124;8.582;2024-02-26T07:52:43;7.00;99.90
20829;DHT22;10575;50.124;8.582;2024-02-26T07:55:10;7.00;99.90
20829;DHT22;10575;50.124;8.582;2024-02-26T07:57:35;6.80;99.90
20829;DHT22;10575;50.124;8.582;2024-02-26T08:00:02;6.70;99.90
20829;DHT22;10575;50.124;8.582;2024-02-26T08:02:28;6.70;99.90
20829;DHT22;10575;50.124;8.582;2024-02-26T08:04:53;6.70;99.90
20829;DHT22;10575;50.124;8.582;2024-02-26T08:07:19;6.70;99.90
20829;DHT22;10575;50.124;8.582;2024-02-26T08:09:45;6.70;99.90
20829;DHT22;10575;50.124;8.582;2024-02-26T08:12:11;6.70;99.90
20829;DHT22;10575;50.124;8.582;2024-02-26T08:14:37;6.80;99.90
20829;DHT22;10575;50.124;8.582;2024-02-26T08:17:02;6.80;99.90
20829;DHT22;10575;50.124;8.582;2024-02-26T08:19:28;6.90;99.90
20829;DHT22;10575;50.124;8.582;2024-02-26T08:21:54;7.10;99.90
20829;DHT22;10575;50.124;8.582;2024-02-26T08:24:20;7.20;99.90
20829;DHT22;10575;50.124;8.582;2024-02-26T08:26:45;7.30;99.90
20829;DHT22;10575;50.124;8.582;2024-02-26T08:29:11;7.30;99.90
20829;DHT22;10575;50.124;8.582;2024-02-26T08:31:36;7.40;99.90
20829;DHT22;10575;50.124;8.582;2024-02-26T08:34:03;7.30;99.90
20829;DHT22;10575;50.124;8.582;2024-02-26T08:36:29;7.20;99.90
20829;DHT22;10575;50.124;8.582;2024-02-26T08:38:55;7.10;99.90
20829;DHT22;10575;50.124;8.582;2024-02-26T08:41:20;7.10;99.90
20829;DHT22;10575;50.124;8.582;2024-02-26T08:43:46;7.20;99.90
20829;DHT22;10575;50.124;8.582;2024-02-26T08:46:12;7.20;99.90
20829;DHT22;10575;50.124;8.582;2024-02-26T08:48:39;7.30;99.90
20829;DHT22;10575;50.124;8.582;2024-02-26T08:51:08;7.30;99.90
20829;DHT22;10575;50.124;8.582;2024-02-26T08:53:35;7.20;99.90
20829;DHT22;10575;50.124;8.582;2024-02-26T08:56:01;7.30;99.90
20829;DHT22;10575;50.124;8.582;2024-02-26T08:58:27;7.10;99.90
20829;DHT22;10575;50.124;8.582;2024-02-26T09:00:53;6.90;99.90
20829;DHT22;10575;50.124;8.582;2024-02-26T09:03:19;6.80;99.90
20829;DHT22;10575;50.124;8.582;2024-02-26T09:05:44;6.80;99.90
20829;DHT22;10575;50.124;8.582;2024-02-26T09:08:10;6.80;99.90
20829;DHT22;10575;50.124;8.582;2024-02-26T09:10:35;6.80;99.90
20829;DHT22;10575;50.124;8.582;2024-02-26T09:13:01;6.80;99.90
20829;DHT22;10575;50.124;8.582;2024-02-26T09:15:27;6.90;99.90
20829;DHT22;10575;50.124;8.582;2024-02-26T09:17:53;6.90;99.90
20829;DHT22;10575;50.124;8.582;2024-02-26T09:20:18;7.00;99.90
20829;DHT22;10575;50.124;8.582;2024-02-26T09:22:46;7.10;99.90
20829;DHT22;10575;50.124;8.582;2024-02-26T09:25:12;7.10;99.90
20829;DHT22;10575;50.124;8.582;2024-02-26T09:27:37;7.20;99.90
20829;DHT22;10575;50.124;8.582;2024-02-26T09:30:03;7.40;99.90
20829;DHT22;10575;50.124;8.582;2024-02-26T09:32:29;7.50;99.90
20829;DHT22;10575;50.124;8.582;2024-02-26T09:34:55;7.50;99.90
20829;DHT22;10575;50.124;8.582;2024-02-26T09:37:21;7.60;99.90
20829;DHT22;10575;50.124;8.582;2024-02-26T09:39:46;7.70;99.90
20829;DHT22;10575;50.124;8.582;2024-02-26T09:42:13;7.80;99.90
20829;DHT22;10575;50.124;8.582;2024-02-26T09:44:40;8.00;99.90
20829;DHT22;10575;50.124;8.582;2024-02-26T09:47:09;8.10;99.90
20829;DHT22;10575;50.124;8.582;2024-02-26T09:49:37;8.20;99.90
20829;DHT22;10575;50.124;8.582;2024-02-26T09:52:04;8.10;99.90
20829;DHT22;10575;50.124;8.582;2024-02-26T09:54:31;8.20;99.90
20829;DHT22;10575;50.124;8.582;2024-02-26T09:57:02;8.30;99.90
20829;DHT22;10575;50.124;8.582;2024-02-26T09:59:29;8.20;99.90
20829;DHT22;10575;50.124;8.582;2024-02-26T10:01:56;8.30;99.90
20829;DHT22;10575;50.124;8.582;2024-02-26T10:04:23;8.40;99.90
20829;DHT22;10575;50.124;8.582;2024-02-26T10:06:50;8.50;99.90
20829;DHT22;10575;50.124;8.582;2024-02-26T10:09:17;8.50;99.90
20829;DHT22;10575;50.124;8.582;2024-02-26T10:11:43;8.40;99.90
20829;DHT22;10575;50.124;8.582;2024-02-26T10:14:09;8.30;99.90
20829;DHT22;10575;50.124;8.582;2024-02-26T10:16:35;8.40;99.90
20829;DHT22;10575;50.124;8.582;2024-02-26T10:19:00;8.40;99.90
20829;DHT22;10575;50.124;8.582;2024-02-26T10:21:26;8.40;99.90
20829;DHT22;10575;50.124;8.582;2024-02-26T10:23:52;8.50;99.90
20829;DHT22;10575;50.124;8.582;2024-02-26T10:26:17;8.50;99.90
20829;DHT22;10575;50.124;8.582;2024-02-26T10:28:45;8.50;99.90
20829;DHT22;10575;50.124;8.582;2024-02-26T10:31:11;8.50;99.90
20829;DHT22;10575;50.124;8.582;2024-02-26T10:33:38;8.40;99.90
20829;DHT22;10575;50.124;8.582;2024-02-26T10:36:07;8.40;99.90
20829;DHT22;10575;50.124;8.582;2024-02-26T10:38:35;8.30;99.90
20829;DHT22;10575;50.124;8.582;2024-02-26T10:41:02;8.40;99.90
20829;DHT22;10575;50.124;8.582;2024-02-26T10:43:28;8.40;99.90
20829;DHT22;10575;50.124;8.582;2024-02-26T10:45:57;8.50;99.90
20829;DHT22;10575;50.124;8.582;2024-02-26T10:48:23;8.50;99.90
20829;DHT22;10575;50.124;8.582;2024-02-26T10:50:49;8.70;99.90
20829;DHT22;10575;50.124;8.582;2024-02-26T10:53:17;8.90;99.90
20829;DHT22;10575;50.124;8.582;2024-02-26T10:56:00;8.90;99.90
20829;DHT22;10575;50.124;8.582;2024-02-26T10:58:26;9.00;99.90
20829;DHT22;10575;50.124;8.582;2024-02-26T11:00:56;9.30;99.90
20829;DHT22;10575;50.124;8.582;2024-02-26T11:03:23;9.30;99.90
20829;DHT22;10575;50.124;8.582;2024-02-26T11:05:50;9.30;99.90
20829;DHT22;10575;50.124;8.582;2024-02-26T11:08:19;9.60;99.90
20829;DHT22;10575;50.124;8.582;2024-02-26T11:10:47;9.80;99.90
20829;DHT22;10575;50.124;8.582;2024-02-26T11:13:15;9.90;99.90
20829;DHT22;10575;50.124;8.582;2024-02-26T11:15:43;10.10;99.90
20829;DHT22;10575;50.124;8.582;2024-02-26T11:18:09;10.30;99.90
20829;DHT22;10575;50.124;8.582;2024-02-26T11:20:38;10.00;99.90
20829;DHT22;10575;50.124;8.582;2024-02-26T11:23:06;9.90;99.90
20829;DHT22;10575;50.124;8.582;2024-02-26T11:25:32;9.70;99.90
20829;DHT22;10575;50.124;8.582;2024-02-26T11:28:00;9.70;99.90
20829;DHT22;10575;50.124;8.582;2024-02-26T11:30:31;10.00;99.90
20829;DHT22;10575;50.124;8.582;2024-02-26T11:32:57;10.40;99.90
20829;DHT22;10575;50.124;8.582;2024-02-26T11:35:23;10.60;99.90
20829;DHT22;10575;50.124;8.582;2024-02-26T11:37:56;10.50;99.90
20829;DHT22;10575;50.124;8.582;2024-02-26T11:40:25;10.20;99.90
20829;DHT22;10575;50.124;8.582;2024-02-26T11:42:51;9.90;99.90
20829;DHT22;10575;50.124;8.582;2024-02-26T11:45:48;10.00;99.90
20829;DHT22;10575;50.124;8.582;2024-02-26T11:48:16;9.90;99.90
20829;DHT22;10575;50.124;8.582;2024-02-26T11:50:52;10.00;99.90
20829;DHT22;10575;50.124;8.582;2024-02-26T11:53:30;9.90;99.90
20829;DHT22;10575;50.124;8.582;2024-02-26T11:58:45;10.30;99.90
20829;DHT22;10575;50.124;8.582;2024-02-26T12:06:55;10.80;99.90
20829;DHT22;10575;50.124;8.582;2024-02-26T12:09:38;10.50;99.90
20829;DHT22;10575;50.124;8.582;2024-02-26T12:12:05;10.70;99.90
20829;DHT22;10575;50.124;8.582;2024-02-26T12:14:57;10.40;99.90
20829;DHT22;10575;50.124;8.582;2024-02-26T12:17:24;10.40;99.90
20829;DHT22;10575;50.124;8.582;2024-02-26T12:19:50;10.50;99.90
20829;DHT22;10575;50.124;8.582;2024-02-26T12:22:18;10.70;99.90
20829;DHT22;10575;50.124;8.582;2024-02-26T12:24:44;10.80;99.90
20829;DHT22;10575;50.124;8.582;2024-02-26T12:27:09;10.60;99.90
20829;DHT22;10575;50.124;8.582;2024-02-26T12:29:35;10.70;99.90
20829;DHT22;10575;50.124;8.582;2024-02-26T12:32:02;10.60;99.90
20829;DHT22;10575;50.124;8.582;2024-02-26T12:34:28;10.50;99.90
20829;DHT22;10575;50.124;8.582;2024-02-26T12:36:54;10.40;99.90
20829;DHT22;10575;50.124;8.582;2024-02-26T12:39:20;10.40;99.90
20829;DHT22;10575;50.124;8.582;2024-02-26T12:41:46;10.30;99.90
20829;DHT22;10575;50.124;8.582;2024-02-26T12:44:24;10.20;99.90
20829;DHT22;10575;50.124;8.582;2024-02-26T12:46:49;10.30;99.90
20829;DHT22;10575;50.124;8.582;2024-02-26T12:49:15;10.20;99.90
20829;DHT22;10575;50.124;8.582;2024-02-26T12:51:44;10.10;99.90
20829;DHT22;10575;50.124;8.582;2024-02-26T12:54:11;10.10;99.90
20829;DHT22;10575;50.124;8.582;2024-02-26T12:56:37;10.20;99.90
20829;DHT22;10575;50.124;8.582;2024-02-26T12:59:03;10.30;99.90
20829;DHT22;10575;50.124;8.582;2024-02-26T13:01:29;10.20;99.90
20829;DHT22;10575;50.124;8.582;2024-02-26T13:03:55;10.20;99.90
20829;DHT22;10575;50.124;8.582;2024-02-26T13:06:22;10.50;99.90
20829;DHT22;10575;50.124;8.582;2024-02-26T13:08:48;10.80;99.90
20829;DHT22;10575;50.124;8.582;2024-02-26T13:11:14;11.00;99.90
20829;DHT22;10575;50.124;8.582;2024-02-26T13:13:40;11.10;99.90
20829;DHT22;10575;50.124;8.582;2024-02-26T13:16:07;11.10;99.90
20829;DHT22;10575;50.124;8.582;2024-02-26T13:18:34;11.10;99.90
20829;DHT22;10575;50.124;8.582;2024-02-26T13:21:11;11.30;99.90
20829;DHT22;10575;50.124;8.582;2024-02-26T13:23:38;11.40;99.90
20829;DHT22;10575;50.124;8.582;2024-02-26T13:26:04;11.20;99.90
20829;DHT22;10575;50.124;8.582;2024-02-26T13:28:29;11.30;99.90
20829;DHT22;10575;50.124;8.582;2024-02-26T13:30:56;11.20;99.90
20829;DHT22;10575;50.124;8.582;2024-02-26T13:33:23;11.20;99.90
20829;DHT22;10575;50.124;8.582;2024-02-26T13:35:49;11.30;99.90
20829;DHT22;10575;50.124;8.582;2024-02-26T13:38:14;11.40;99.90
20829;DHT22;10575;50.124;8.582;2024-02-26T13:40:40;11.20;99.90
20829;DHT22;10575;50.124;8.582;2024-02-26T13:43:06;11.10;99.90
20829;DHT22;10575;50.124;8.582;2024-02-26T13:45:36;11.00;99.90
20829;DHT22;10575;50.124;8.582;2024-02-26T13:48:04;11.10;99.90
20829;DHT22;10575;50.124;8.582;2024-02-26T13:50:30;11.10;99.90
20829;DHT22;10575;50.124;8.582;2024-02-26T13:52:56;11.20;99.90
20829;DHT22;10575;50.124;8.582;2024-02-26T13:55:23;11.30;99.90
20829;DHT22;10575;50.124;8.582;2024-02-26T13:57:52;11.20;99.90
20829;DHT22;10575;50.124;8.582;2024-02-26T14:00:19;11.30;99.90
20829;DHT22;10575;50.124;8.582;2024-02-26T14:02:45;11.30;99.90
20829;DHT22;10575;50.124;8.582;2024-02-26T14:05:10;11.10;99.90
20829;DHT22;10575;50.124;8.582;2024-02-26T14:07:36;11.00;99.90
20829;DHT22;10575;50.124;8.582;2024-02-26T14:10:02;11.00;99.90
20829;DHT22;10575;50.124;8.582;2024-02-26T14:12:27;11.00;99.90
20829;DHT22;10575;50.124;8.582;2024-02-26T14:14:53;11.00;99.90
20829;DHT22;10575;50.124;8.582;2024-02-26T14:17:21;11.00;99.90
20829;DHT22;10575;50.124;8.582;2024-02-26T14:19:47;11.00;99.90
20829;DHT22;10575;50.124;8.582;2024-02-26T14:22:14;11.00;99.90
20829;DHT22;10575;50.124;8.582;2024-02-26T14:24:41;11.00;99.90
20829;DHT22;10575;50.124;8.582;2024-02-26T14:27:08;10.80;99.90
20829;DHT22;10575;50.124;8.582;2024-02-26T14:29:34;10.70;99.90
20829;DHT22;10575;50.124;8.582;2024-02-26T14:31:59;10.70;99.90
20829;DHT22;10575;50.124;8.582;2024-02-26T14:34:27;10.80;99.90
20829;DHT22;10575;50.124;8.582;2024-02-26T14:36:52;10.80;99.90
20829;DHT22;10575;50.124;8.582;2024-02-26T14:39:18;10.80;99.90
20829;DHT22;10575;50.124;8.582;2024-02-26T14:41:43;10.80;99.90
20829;DHT22;10575;50.124;8.582;2024-02-26T14:44:09;10.80;99.90
20829;DHT22;10575;50.124;8.582;2024-02-26T14:46:36;10.70;99.90
20829;DHT22;10575;50.124;8.582;2024-02-26T14:49:01;10.70;99.90
20829;DHT22;10575;50.124;8.582;2024-02-26T14:51:28;10.60;99.90
20829;DHT22;10575;50.124;8.582;2024-02-26T14:53:54;10.50;99.90
20829;DHT22;10575;50.124;8.582;2024-02-26T14:56:20;10.50;99.90
20829;DHT22;10575;50.124;8.582;2024-02-26T14:58:45;10.50;99.90
20829;DHT22;10575;50.124;8.582;2024-02-26T15:01:11;10.50;99.90
20829;DHT22;10575;50.124;8.582;2024-02-26T15:03:37;10.50;99.90
20829;DHT22;10575;50.124;8.582;2024-02-26T15:06:03;10.50;99.90
20829;DHT22;10575;50.124;8.582;2024-02-26T15:08:28;10.40;99.90
20829;DHT22;10575;50.124;8.582;2024-02-26T15:10:54;10.30;99.90
20829;DHT22;10575;50.124;8.582;2024-02-26T15:13:19;10.30;99.90
20829;DHT22;10575;50.124;8.582;2024-02-26T15:15:45;10.40;99.90
20829;DHT22;10575;50.124;8.582;2024-02-26T15:18:11;10.40;99.90
20829;DHT22;10575;50.124;8.582;2024-02-26T15:20:41;10.50;99.90
20829;DHT22;10575;50.124;8.582;2024-02-26T15:23:08;10.40;99.90
20829;DHT22;10575;50.124;8.582;2024-02-26T15:25:34;10.40;99.90
20829;DHT22;10575;50.124;8.582;2024-02-26T15:28:00;10.40;99.90
20829;DHT22;10575;50.124;8.582;2024-02-26T15:30:25;10.40;99.90
20829;DHT22;10575;50.124;8.582;2024-02-26T15:32:52;10.50;99.90
20829;DHT22;10575;50.124;8.582;2024-02-26T15:35:18;10.50;99.90
20829;DHT22;10575;50.124;8.582;2024-02-26T15:37:43;10.40;99.90
20829;DHT22;10575;50.124;8.582;2024-02-26T15:40:09;10.50;99.90
20829;DHT22;10575;50.124;8.582;2024-02-26T15:42:35;10.40;99.90
20829;DHT22;10575;50.124;8.582;2024-02-26T15:45:01;10.40;99.90
20829;DHT22;10575;50.124;8.582;2024-02-26T15:47:26;10.40;99.90